KHDN

Yampa Valley Airport

Hayden, Colorado, USA
METAR KHDN 231356Z AUTO 12010KT 10SM FEW050 M11/M13 A2995 RMK AO2 SLP204 T11111128 FZRANO
Observed Flight Rules
Feb-23 @ 13:56 UTC (29 minutes ago) Visual Flight Rules
Wind Visibility Clouds
120° at 10 knots 10 miles
  • Few at 5,000' AGL
Temperatures Readings
Current -11°C / 12°F
Dewpoint -13°C / 9°F
Humidity 85%
Altimeter 29.95" Hg
Pressure 1020.4 hPa
Elevation 2012
METAR KHDN 231356Z AUTO 12010KT 10SM FEW050 M11/M13 A2995 RMK AO2 SLP204 T11111128 FZRANO
Observed Flight Rules
Feb-23 @ 13:56 UTC
(29 minutes ago)
VFR
Wind Visibility
120° at 10 knots 10 miles
Clouds
  • Few at 5,000' AGL
Temperature Dewpoint
-11°C / 12°F -13°C / 9°F
Humidity Altimeter Pressure
85% 29.95" Hg 1020.4 hPa